Time;durP1;ratioP1;P1;durP2;ratioP2;P2;SDS_P1;SDS_P2;PMS_P1;PMS_P2;Temp;Humidity;BMP_temperature;BMP_pressure;BME280_temperature;BME280_humidity;BME280_pressure;Samples;Min_cycle;Max_cycle;Signal;HPM_P1;HPM_P2
2021/06/10 00:00:52;;;;;;;7.00;4.40;;;16.80;99.90;;;;;;5125874;28;20695;-75
2021/06/10 00:03:19;;;;;;;9.13;4.93;;;16.80;99.90;;;;;;5117066;28;20728;-74
2021/06/10 00:05:45;;;;;;;8.10;5.53;;;17.00;99.90;;;;;;5117009;28;20190;-75
2021/06/10 00:08:12;;;;;;;6.83;5.27;;;17.20;99.90;;;;;;5117872;28;20196;-75
2021/06/10 00:10:41;;;;;;;8.67;5.20;;;17.30;99.90;;;;;;5115634;28;20221;-75
2021/06/10 00:13:08;;;;;;;9.17;4.80;;;17.40;99.90;;;;;;5115769;28;20267;-74
2021/06/10 00:15:36;;;;;;;5.63;4.47;;;17.20;99.90;;;;;;5115874;28;20232;-74
2021/06/10 00:18:03;;;;;;;7.37;4.93;;;17.10;99.90;;;;;;5115888;28;20220;-74
2021/06/10 00:20:31;;;;;;;6.40;4.40;;;17.00;99.90;;;;;;5115653;28;20279;-75
2021/06/10 00:22:58;;;;;;;5.40;4.60;;;16.90;99.90;;;;;;5114011;28;20305;-74
2021/06/10 00:25:25;;;;;;;7.33;5.43;;;16.90;99.90;;;;;;5113725;28;20247;-74
2021/06/10 00:27:53;;;;;;;8.33;6.47;;;17.00;99.90;;;;;;5113340;28;20190;-75
2021/06/10 00:30:20;;;;;;;7.10;5.80;;;17.00;99.90;;;;;;5113684;28;20212;-74
2021/06/10 00:32:48;;;;;;;9.63;6.37;;;16.80;99.90;;;;;;5113655;28;20273;-74
2021/06/10 00:35:16;;;;;;;9.93;6.50;;;16.80;99.90;;;;;;5113287;28;20297;-74
2021/06/10 00:37:43;;;;;;;8.13;6.10;;;16.80;99.90;;;;;;5114529;28;20225;-74
2021/06/10 00:40:11;;;;;;;9.53;6.00;;;16.80;99.90;;;;;;5116987;28;20313;-74
2021/06/10 00:42:37;;;;;;;8.40;5.97;;;16.70;99.90;;;;;;5116651;28;20636;-74
2021/06/10 00:45:07;;;;;;;7.80;7.00;;;16.80;99.90;;;;;;5117154;28;20604;-74
2021/06/10 00:47:34;;;;;;;8.93;6.53;;;16.60;99.90;;;;;;5107934;28;20222;-74
2021/06/10 00:50:00;;;;;;;7.13;6.00;;;16.60;99.90;;;;;;5117018;28;20227;-74
2021/06/10 00:52:27;;;;;;;10.27;6.77;;;16.50;99.90;;;;;;5116821;28;20186;-73
2021/06/10 00:54:53;;;;;;;8.90;7.13;;;16.60;99.90;;;;;;5116749;28;20293;-75
2021/06/10 00:57:19;;;;;;;9.33;7.50;;;16.70;99.90;;;;;;5117004;28;20281;-74
2021/06/10 00:59:46;;;;;;;12.67;7.40;;;16.60;99.90;;;;;;5116814;28;20253;-74
2021/06/10 01:02:14;;;;;;;15.57;7.60;;;16.60;99.90;;;;;;5116801;28;20217;-74
2021/06/10 01:04:40;;;;;;;9.17;6.83;;;16.60;99.90;;;;;;5116876;28;20194;-73
2021/06/10 01:07:10;;;;;;;9.03;7.03;;;16.70;99.90;;;;;;5116578;28;20281;-74
2021/06/10 01:09:42;;;;;;;11.60;7.70;;;16.80;99.90;;;;;;5116779;28;20252;-74
2021/06/10 01:12:15;;;;;;;10.60;7.30;;;16.80;99.90;;;;;;5116756;28;20182;-73
2021/06/10 01:14:46;;;;;;;9.87;7.17;;;16.60;99.90;;;;;;5116771;28;20191;-75
2021/06/10 01:17:14;;;;;;;10.07;6.70;;;16.60;99.90;;;;;;5116217;28;20281;-74
2021/06/10 01:19:56;;;;;;;12.30;7.73;;;16.70;99.90;;;;;;5116255;28;20228;-74
2021/06/10 01:22:33;;;;;;;12.53;7.40;;;16.50;99.90;;;;;;5116427;28;20273;-74
2021/06/10 01:25:11;;;;;;;9.37;7.63;;;16.40;99.90;;;;;;5116055;28;20200;-74
2021/06/10 01:27:43;;;;;;;14.67;7.23;;;16.30;99.90;;;;;;5113020;28;20190;-73
2021/06/10 01:30:13;;;;;;;10.90;7.03;;;16.30;99.90;;;;;;5116442;28;20259;-74
2021/06/10 01:32:44;;;;;;;10.40;7.03;;;16.30;99.90;;;;;;5116019;28;20300;-74
2021/06/10 01:35:14;;;;;;;10.27;7.17;;;16.30;99.90;;;;;;5116141;28;20267;-74
2021/06/10 01:37:42;;;;;;;8.50;7.20;;;16.30;99.90;;;;;;5115718;28;20206;-75
2021/06/10 01:40:10;;;;;;;10.97;7.97;;;16.30;99.90;;;;;;5115456;28;20628;-74
2021/06/10 01:42:39;;;;;;;8.30;7.37;;;16.30;99.90;;;;;;5115710;28;20335;-75
2021/06/10 01:45:08;;;;;;;11.10;7.73;;;16.30;99.90;;;;;;5115464;28;20291;-76
2021/06/10 01:47:35;;;;;;;12.23;8.20;;;16.30;99.90;;;;;;5115695;28;20285;-74
2021/06/10 01:50:03;;;;;;;22.57;11.07;;;16.30;99.90;;;;;;5114489;28;20663;-75
2021/06/10 01:52:31;;;;;;;11.87;8.87;;;16.30;99.90;;;;;;5115782;28;20259;-74
2021/06/10 01:54:58;;;;;;;12.87;9.67;;;16.30;99.90;;;;;;5115706;28;20650;-75
2021/06/10 01:57:25;;;;;;;12.37;9.70;;;16.30;99.90;;;;;;5115364;28;20201;-73
2021/06/10 01:59:55;;;;;;;12.10;10.43;;;16.20;99.90;;;;;;5115432;28;20233;-74
2021/06/10 02:02:22;;;;;;;12.50;10.10;;;16.20;99.90;;;;;;5115646;28;20186;-74
2021/06/10 02:04:49;;;;;;;11.67;10.23;;;16.20;99.90;;;;;;5115312;28;20200;-74
2021/06/10 02:07:16;;;;;;;14.17;10.40;;;16.20;99.90;;;;;;5114963;28;20342;-73
2021/06/10 02:09:43;;;;;;;12.70;11.40;;;16.20;99.90;;;;;;5115110;28;20198;-74
2021/06/10 02:12:11;;;;;;;14.93;11.37;;;16.20;99.90;;;;;;5111720;28;20301;-76
2021/06/10 02:14:39;;;;;;;13.70;11.40;;;16.20;99.90;;;;;;5114925;28;20198;-73
2021/06/10 02:17:07;;;;;;;15.00;12.00;;;16.20;99.90;;;;;;5114687;28;20222;-74
2021/06/10 02:19:35;;;;;;;14.60;11.63;;;16.20;99.90;;;;;;5114685;28;20308;-74
2021/06/10 02:22:01;;;;;;;15.97;11.77;;;16.20;99.90;;;;;;5114572;28;20281;-74
2021/06/10 02:24:28;;;;;;;13.73;11.87;;;16.20;99.90;;;;;;5114873;28;20643;-74
2021/06/10 02:26:54;;;;;;;14.23;11.30;;;16.20;99.90;;;;;;5114654;28;20272;-75
2021/06/10 02:29:20;;;;;;;15.67;12.53;;;16.20;99.90;;;;;;5114384;28;20205;-74
2021/06/10 02:31:47;;;;;;;14.13;12.63;;;16.30;99.90;;;;;;5114596;28;20186;-74
2021/06/10 02:34:14;;;;;;;18.33;13.43;;;16.30;99.90;;;;;;5114063;28;20296;-74
2021/06/10 02:36:42;;;;;;;16.47;14.23;;;16.20;99.90;;;;;;5114801;28;20193;-74
2021/06/10 02:39:12;;;;;;;19.37;13.80;;;16.20;99.90;;;;;;5114101;28;20607;-74
2021/06/10 02:41:44;;;;;;;16.53;13.87;;;16.00;99.90;;;;;;5114265;28;20193;-75
2021/06/10 02:44:11;;;;;;;14.97;12.57;;;16.00;99.90;;;;;;5114578;28;20186;-74
2021/06/10 02:46:41;;;;;;;15.57;12.53;;;16.00;99.90;;;;;;5114088;28;20186;-74
2021/06/10 02:49:09;;;;;;;14.63;12.47;;;16.00;99.90;;;;;;5114017;28;20198;-74
2021/06/10 02:51:38;;;;;;;18.17;14.60;;;15.90;99.90;;;;;;5114010;28;20186;-74
2021/06/10 02:54:07;;;;;;;15.83;13.83;;;16.00;99.90;;;;;;5113886;28;20284;-75
2021/06/10 02:56:35;;;;;;;17.93;14.33;;;16.00;99.90;;;;;;5113983;28;20202;-74
2021/06/10 02:59:04;;;;;;;21.00;14.53;;;16.00;99.90;;;;;;5113808;28;20190;-74
2021/06/10 03:01:32;;;;;;;19.90;14.57;;;15.90;99.90;;;;;;5113684;28;20544;-73
2021/06/10 03:03:59;;;;;;;23.40;16.73;;;15.90;99.90;;;;;;5113784;28;20186;-75
2021/06/10 03:06:26;;;;;;;19.23;14.70;;;15.80;99.90;;;;;;5113644;28;20684;-74
2021/06/10 03:08:54;;;;;;;20.07;16.33;;;15.80;99.90;;;;;;5114046;28;20299;-75
2021/06/10 03:11:22;;;;;;;21.07;15.53;;;15.80;99.90;;;;;;5113436;28;20233;-74
2021/06/10 03:13:50;;;;;;;23.37;16.93;;;15.70;99.90;;;;;;5113909;28;20273;-75
2021/06/10 03:16:17;;;;;;;24.73;16.23;;;15.70;99.90;;;;;;5113824;28;20217;-75
2021/06/10 03:18:44;;;;;;;22.83;16.57;;;15.70;99.90;;;;;;5113558;28;20194;-74
2021/06/10 03:21:11;;;;;;;21.87;16.87;;;15.60;99.90;;;;;;5113389;28;20225;-74
2021/06/10 03:23:38;;;;;;;26.10;17.53;;;15.70;99.90;;;;;;5113438;28;20715;-74
2021/06/10 03:26:07;;;;;;;25.63;18.07;;;15.80;99.90;;;;;;5113650;28;20285;-75
2021/06/10 03:28:34;;;;;;;23.47;16.93;;;15.80;99.90;;;;;;5110774;28;20285;-74
2021/06/10 03:31:01;;;;;;;22.33;16.57;;;15.70;99.90;;;;;;5113508;28;20285;-74
2021/06/10 03:33:28;;;;;;;20.73;15.83;;;15.60;99.90;;;;;;5113358;28;20234;-74
2021/06/10 03:35:55;;;;;;;21.30;16.23;;;15.50;99.90;;;;;;5113537;28;20332;-75
2021/06/10 03:38:23;;;;;;;20.40;15.60;;;15.50;99.90;;;;;;5113505;28;20217;-76
2021/06/10 03:40:51;;;;;;;23.83;16.30;;;15.50;99.90;;;;;;5112811;28;20313;-74
2021/06/10 03:43:20;;;;;;;21.77;15.20;;;15.50;99.90;;;;;;5113650;28;20230;-74
2021/06/10 03:45:46;;;;;;;23.57;15.07;;;15.70;99.90;;;;;;5114013;28;20273;-75
2021/06/10 03:48:14;;;;;;;21.20;15.87;;;15.90;99.90;;;;;;5112757;28;20280;-74
2021/06/10 03:50:41;;;;;;;21.77;15.27;;;16.10;99.90;;;;;;5113159;28;20189;-75
2021/06/10 03:53:09;;;;;;;19.97;14.60;;;16.40;99.90;;;;;;5113260;28;20285;-76
2021/06/10 03:55:37;;;;;;;17.50;13.03;;;16.60;99.90;;;;;;5113181;28;20574;-74
2021/06/10 03:58:04;;;;;;;18.40;14.57;;;16.90;99.90;;;;;;5113287;28;20284;-75
2021/06/10 04:00:31;;;;;;;17.10;13.70;;;17.20;99.90;;;;;;5111914;28;20245;-74
2021/06/10 04:02:59;;;;;;;16.30;13.20;;;17.40;99.90;;;;;;5113330;28;20289;-74
2021/06/10 04:05:27;;;;;;;18.23;13.80;;;17.60;99.90;;;;;;5113187;28;20193;-75
2021/06/10 04:07:55;;;;;;;15.60;13.37;;;17.60;99.90;;;;;;5113128;28;20194;-74
2021/06/10 04:10:21;;;;;;;18.17;14.03;;;17.70;99.90;;;;;;5113089;28;20201;-74
2021/06/10 04:12:48;;;;;;;19.30;14.20;;;17.70;99.90;;;;;;5113778;28;20269;-75
2021/06/10 04:15:16;;;;;;;16.70;14.00;;;17.70;99.90;;;;;;5116253;28;20194;-75
2021/06/10 04:17:44;;;;;;;16.57;13.50;;;17.70;99.90;;;;;;5117230;28;20217;-74
2021/06/10 04:20:12;;;;;;;17.00;13.40;;;17.80;99.90;;;;;;5116592;28;20259;-74
2021/06/10 04:22:38;;;;;;;17.60;13.30;;;17.90;99.90;;;;;;5116753;28;20583;-75
2021/06/10 04:25:07;;;;;;;17.40;13.97;;;18.00;99.90;;;;;;5116868;28;20196;-74
2021/06/10 04:27:33;;;;;;;18.40;13.43;;;18.10;99.90;;;;;;5109242;28;20201;-74
2021/06/10 04:30:00;;;;;;;22.33;13.60;;;18.10;99.90;;;;;;5119756;27;20627;-75
2021/06/10 04:32:26;;;;;;;18.57;13.70;;;18.20;99.90;;;;;;5136801;27;20277;-75
2021/06/10 04:34:54;;;;;;;16.10;13.30;;;18.30;99.90;;;;;;5137513;27;20220;-75
2021/06/10 04:37:20;;;;;;;15.90;13.20;;;18.50;99.90;;;;;;5128222;27;20287;-74
2021/06/10 04:39:47;;;;;;;19.13;12.83;;;18.60;99.90;;;;;;5100428;27;20676;-75
2021/06/10 04:42:13;;;;;;;16.50;12.77;;;18.90;99.90;;;;;;5096155;27;20226;-75
2021/06/10 04:44:40;;;;;;;17.60;13.50;;;19.40;99.90;;;;;;5110091;27;20593;-75
2021/06/10 04:47:08;;;;;;;15.63;12.90;;;20.00;99.90;;;;;;5108675;27;20194;-75
2021/06/10 04:49:36;;;;;;;19.53;13.20;;;21.00;99.90;;;;;;5100416;28;20291;-75
2021/06/10 04:52:05;;;;;;;12.70;11.43;;;22.30;99.90;;;;;;5102894;28;20225;-76
2021/06/10 04:54:33;;;;;;;12.00;9.98;;;23.60;99.90;;;;;;5098988;28;20722;-75
2021/06/10 04:57:00;;;;;;;11.20;10.05;;;25.00;99.90;;;;;;5100795;28;20228;-75
2021/06/10 04:59:32;;;;;;;13.82;9.23;;;26.30;99.90;;;;;;5110930;28;20194;-75
2021/06/10 05:02:01;;;;;;;9.77;8.63;;;27.40;99.90;;;;;;5105726;28;20198;-75
2021/06/10 05:04:27;;;;;;;12.60;8.82;;;28.40;99.90;;;;;;5104497;28;20192;-75
2021/06/10 05:06:54;;;;;;;13.25;8.50;;;29.40;99.90;;;;;;5115442;28;20285;-75
2021/06/10 05:09:22;;;;;;;10.10;8.55;;;30.20;99.90;;;;;;5115301;28;20197;-76
2021/06/10 05:11:48;;;;;;;11.38;8.73;;;30.60;99.90;;;;;;5106535;28;20194;-75
2021/06/10 05:14:16;;;;;;;12.70;9.13;;;30.50;99.90;;;;;;5100870;28;20292;-76
2021/06/10 05:16:44;;;;;;;11.32;9.18;;;29.90;99.90;;;;;;5106856;28;20187;-76
2021/06/10 05:19:10;;;;;;;14.90;9.30;;;29.10;99.90;;;;;;5105891;28;20277;-76
2021/06/10 05:21:37;;;;;;;13.07;9.60;;;28.20;99.90;;;;;;5106329;28;20190;-76
2021/06/10 05:24:05;;;;;;;18.27;9.60;;;27.30;99.90;;;;;;5109357;28;20658;-76
2021/06/10 05:26:33;;;;;;;13.27;9.25;;;27.00;99.90;;;;;;5098239;28;20237;-75
2021/06/10 05:29:00;;;;;;;11.05;8.10;;;27.50;99.90;;;;;;5099608;28;20613;-75
2021/06/10 05:31:26;;;;;;;16.42;7.43;;;28.60;99.90;;;;;;5109669;28;20194;-75
2021/06/10 05:33:56;;;;;;;10.70;7.35;;;29.80;99.90;;;;;;5103840;28;20194;-76
2021/06/10 05:36:22;;;;;;;9.68;6.97;;;31.00;99.90;;;;;;5102721;28;20218;-76
2021/06/10 05:38:49;;;;;;;9.25;6.50;;;32.10;99.90;;;;;;5111277;28;20255;-75
2021/06/10 05:41:15;;;;;;;7.95;6.50;;;33.10;99.90;;;;;;5110226;28;20222;-75
2021/06/10 05:43:43;;;;;;;7.70;6.90;;;33.60;99.90;;;;;;5114201;28;20226;-77
2021/06/10 05:46:09;;;;;;;8.40;6.57;;;33.50;99.90;;;;;;5110056;28;20264;-75
2021/06/10 05:48:36;;;;;;;9.27;6.53;;;33.40;99.90;;;;;;5098287;28;20289;-74
2021/06/10 05:51:02;;;;;;;6.78;5.55;;;33.40;99.90;;;;;;5110968;28;20221;-73
2021/06/10 05:53:29;;;;;;;12.63;6.45;;;33.60;99.90;;;;;;5113068;28;20655;-74
2021/06/10 05:55:55;;;;;;;7.90;6.28;;;34.30;99.90;;;;;;5111719;28;20202;-74
2021/06/10 05:58:22;;;;;;;9.52;6.07;;;35.00;99.90;;;;;;5106903;28;20541;-74
2021/06/10 06:00:50;;;;;;;6.90;6.30;;;35.20;99.90;;;;;;5103280;28;20301;-75
2021/06/10 06:03:16;;;;;;;7.25;5.95;;;35.80;99.90;;;;;;5112288;28;20216;-75
2021/06/10 06:05:43;;;;;;;9.13;6.70;;;36.50;99.90;;;;;;5110916;28;20267;-74
2021/06/10 06:08:10;;;;;;;7.60;6.40;;;37.20;99.90;;;;;;5114147;28;20213;-75
2021/06/10 06:10:37;;;;;;;8.45;7.55;;;37.60;99.90;;;;;;5113645;28;20199;-75
2021/06/10 06:13:04;;;;;;;7.40;6.80;;;37.10;99.70;;;;;;5114511;28;20223;-74
2021/06/10 06:15:31;;;;;;;8.70;7.03;;;37.30;98.40;;;;;;5114026;28;20604;-75
2021/06/10 06:17:59;;;;;;;7.70;7.00;;;37.60;98.50;;;;;;5111682;28;20190;-74
2021/06/10 06:20:25;;;;;;;6.75;6.15;;;37.60;96.70;;;;;;5113396;28;20316;-74
2021/06/10 06:22:52;;;;;;;8.82;5.70;;;37.40;96.10;;;;;;5113706;28;20329;-74
2021/06/10 06:25:20;;;;;;;7.32;6.40;;;37.90;97.50;;;;;;5114945;28;20186;-74
2021/06/10 06:27:46;;;;;;;8.15;5.78;;;38.20;95.20;;;;;;5114589;28;20308;-75
2021/06/10 06:30:14;;;;;;;9.00;6.20;;;38.80;95.10;;;;;;5112374;28;20186;-75
2021/06/10 06:32:41;;;;;;;8.32;6.00;;;39.20;94.30;;;;;;5099159;28;20200;-74
2021/06/10 06:35:10;;;;;;;8.05;5.85;;;39.40;93.00;;;;;;5099354;28;20206;-74
2021/06/10 06:37:37;;;;;;;6.95;5.18;;;39.60;94.10;;;;;;5114206;28;20579;-75
2021/06/10 06:40:04;;;;;;;8.77;5.32;;;40.30;94.10;;;;;;5102855;28;20206;-74
2021/06/10 06:42:32;;;;;;;9.07;4.93;;;40.60;92.80;;;;;;5104345;28;20202;-75
2021/06/10 06:44:59;;;;;;;8.57;4.63;;;41.10;93.10;;;;;;5101743;28;20251;-75
2021/06/10 06:47:25;;;;;;;4.72;4.25;;;41.10;91.40;;;;;;5111407;28;20258;-76
2021/06/10 06:49:52;;;;;;;4.13;3.72;;;41.40;91.40;;;;;;5106802;28;20221;-74
2021/06/10 06:52:19;;;;;;;4.50;3.30;;;41.80;90.20;;;;;;5107282;28;20217;-75
2021/06/10 06:54:46;;;;;;;7.32;3.25;;;41.60;87.80;;;;;;5094785;28;20292;-74
2021/06/10 06:57:12;;;;;;;3.58;2.95;;;41.50;87.30;;;;;;5112630;28;20226;-75
2021/06/10 06:59:39;;;;;;;3.47;3.15;;;41.00;88.60;;;;;;5112388;28;20190;-75
2021/06/10 07:02:06;;;;;;;3.92;2.30;;;40.80;85.70;;;;;;5103320;28;20194;-75
2021/06/10 07:04:32;;;;;;;14.23;2.95;;;40.60;84.80;;;;;;5101446;28;20210;-76
2021/06/10 07:06:58;;;;;;;6.22;2.90;;;40.70;86.50;;;;;;5113399;28;20288;-74
2021/06/10 07:09:27;;;;;;;4.25;3.00;;;40.20;85.60;;;;;;5113222;28;20194;-75
2021/06/10 07:11:54;;;;;;;6.90;3.22;;;40.00;88.40;;;;;;5106128;28;20194;-76
2021/06/10 07:14:20;;;;;;;3.40;3.08;;;40.50;86.30;;;;;;5110126;28;20652;-76
2021/06/10 07:16:47;;;;;;;4.32;2.20;;;40.80;89.50;;;;;;5107480;28;20195;-74
2021/06/10 07:19:13;;;;;;;3.45;2.00;;;41.30;87.20;;;;;;5099626;28;20281;-76
2021/06/10 07:21:47;;;;;;;3.92;2.47;;;41.20;84.00;;;;;;5105374;28;20649;-76
2021/06/10 07:24:14;;;;;;;2.47;2.00;;;40.10;86.20;;;;;;5112860;28;20621;-76
2021/06/10 07:26:44;;;;;;;2.67;2.08;;;40.40;87.80;;;;;;5111691;28;20269;-76
2021/06/10 07:29:10;;;;;;;2.88;1.80;;;40.00;87.10;;;;;;5112802;28;20198;-75
2021/06/10 07:31:37;;;;;;;8.27;1.98;;;40.30;87.30;;;;;;5112252;28;20190;-76
2021/06/10 07:34:06;;;;;;;10.00;2.83;;;39.90;86.80;;;;;;5112413;28;20625;-76
2021/06/10 07:36:33;;;;;;;9.43;2.30;;;40.50;86.30;;;;;;5112608;28;20611;-76
2021/06/10 07:38:59;;;;;;;4.88;1.92;;;40.80;85.90;;;;;;5108719;28;20286;-75
2021/06/10 07:41:26;;;;;;;3.22;1.80;;;40.80;85.10;;;;;;5103287;28;20293;-76
2021/06/10 07:43:54;;;;;;;6.07;1.90;;;40.90;85.10;;;;;;5099275;28;20195;-76
2021/06/10 07:46:20;;;;;;;4.45;1.70;;;41.20;84.30;;;;;;5106162;28;20300;-75
2021/06/10 07:48:47;;;;;;;3.53;1.70;;;41.40;86.30;;;;;;5114915;28;20235;-75
2021/06/10 07:51:13;;;;;;;3.03;1.80;;;41.00;85.00;;;;;;5115955;28;20204;-76
2021/06/10 07:53:40;;;;;;;2.33;1.67;;;40.40;84.70;;;;;;5116003;28;20655;-74
2021/06/10 07:56:07;;;;;;;3.10;1.73;;;40.40;85.40;;;;;;5097608;28;78683;-75
2021/06/10 07:58:34;;;;;;;4.15;1.83;;;40.30;85.90;;;;;;5104308;28;20557;-75
2021/06/10 08:01:03;;;;;;;6.03;2.03;;;40.40;87.50;;;;;;5106513;28;20305;-75
2021/06/10 08:03:29;;;;;;;6.88;1.90;;;40.70;87.30;;;;;;5098001;28;20277;-75
2021/06/10 08:05:56;;;;;;;4.43;1.83;;;41.20;86.00;;;;;;5098813;28;20192;-75
2021/06/10 08:08:24;;;;;;;5.22;2.10;;;41.20;86.80;;;;;;5113437;28;20229;-76
2021/06/10 08:10:50;;;;;;;2.65;2.05;;;41.00;84.40;;;;;;5116991;28;20208;-75
2021/06/10 08:13:18;;;;;;;3.08;2.10;;;41.00;87.80;;;;;;5109083;28;20191;-76
2021/06/10 08:15:45;;;;;;;2.67;2.00;;;41.30;86.90;;;;;;5108826;28;20186;-75
2021/06/10 08:18:13;;;;;;;6.13;2.00;;;41.60;85.70;;;;;;5112679;28;20190;-76
2021/06/10 08:20:40;;;;;;;3.72;2.10;;;41.80;86.00;;;;;;5112841;28;20289;-75
2021/06/10 08:23:06;;;;;;;2.38;1.90;;;41.40;82.60;;;;;;5111188;28;20242;-75
2021/06/10 08:25:34;;;;;;;3.20;1.88;;;40.90;84.20;;;;;;5103826;28;20725;-75
2021/06/10 08:28:04;;;;;;;2.03;1.83;;;41.10;84.80;;;;;;5116302;28;20194;-76
2021/06/10 08:30:31;;;;;;;1.77;1.58;;;40.80;83.30;;;;;;5111320;27;20198;-75
2021/06/10 08:32:58;;;;;;;3.67;1.67;;;40.50;85.20;;;;;;5109940;28;20523;-76
2021/06/10 08:35:27;;;;;;;3.30;1.70;;;41.30;85.50;;;;;;5115514;28;20222;-76
2021/06/10 08:37:54;;;;;;;4.00;1.42;;;41.30;85.90;;;;;;5106531;28;20324;-76
2021/06/10 08:40:20;;;;;;;7.13;1.77;;;40.90;83.00;;;;;;5101053;28;20250;-75
2021/06/10 08:42:48;;;;;;;2.10;1.50;;;40.10;84.90;;;;;;5113207;28;20193;-74
2021/06/10 08:45:18;;;;;;;4.28;1.60;;;38.80;85.30;;;;;;5109625;28;20218;-75
2021/06/10 08:47:46;;;;;;;2.13;1.88;;;38.20;89.20;;;;;;5114917;28;20672;-75
2021/06/10 08:50:18;;;;;;;3.28;1.90;;;38.40;90.10;;;;;;5116026;28;20324;-75
2021/06/10 08:52:45;;;;;;;4.32;2.03;;;38.30;88.50;;;;;;5116977;28;20307;-76
2021/06/10 08:55:13;;;;;;;3.30;1.70;;;37.80;89.90;;;;;;5116280;28;20241;-75
2021/06/10 08:57:40;;;;;;;4.28;1.80;;;37.90;90.40;;;;;;5116260;28;20215;-74
2021/06/10 09:00:08;;;;;;;3.10;1.90;;;38.30;89.10;;;;;;5115487;28;20309;-74
2021/06/10 09:02:35;;;;;;;4.75;1.70;;;37.50;90.40;;;;;;5116136;28;20243;-74
2021/06/10 09:05:03;;;;;;;4.95;1.63;;;37.90;90.60;;;;;;5116303;28;20353;-76
2021/06/10 09:07:45;;;;;;;4.22;1.80;;;38.00;90.00;;;;;;5116276;28;20196;-75
2021/06/10 09:10:14;;;;;;;4.90;2.00;;;38.20;90.00;;;;;;5115598;28;20559;-75
2021/06/10 09:12:48;;;;;;;5.40;1.80;;;38.70;88.70;;;;;;5113436;28;20211;-75
2021/06/10 09:15:17;;;;;;;2.30;1.40;;;38.80;90.10;;;;;;5113102;28;20190;-75
2021/06/10 09:17:43;;;;;;;1.83;1.45;;;39.30;89.00;;;;;;5115948;28;20229;-74
2021/06/10 09:20:31;;;;;;;2.95;1.63;;;38.80;90.10;;;;;;5111382;28;20213;-76
2021/06/10 09:23:16;;;;;;;2.72;1.60;;;38.60;91.60;;;;;;5111085;28;20194;-74
2021/06/10 09:25:46;;;;;;;6.65;2.03;;;38.70;90.70;;;;;;5108335;28;20239;-75
2021/06/10 09:28:13;;;;;;;4.63;1.90;;;39.40;90.30;;;;;;5114320;28;20311;-75
2021/06/10 09:30:42;;;;;;;2.00;1.80;;;39.90;90.30;;;;;;5115493;28;20197;-75
2021/06/10 09:33:13;;;;;;;3.95;1.80;;;40.30;87.90;;;;;;5115950;28;20284;-75
2021/06/10 09:35:42;;;;;;;2.90;1.90;;;39.40;88.70;;;;;;5115789;28;20226;-75
2021/06/10 09:38:10;;;;;;;3.97;1.70;;;39.60;89.90;;;;;;5115700;28;20608;-74
2021/06/10 09:40:37;;;;;;;2.83;1.90;;;39.50;89.20;;;;;;5115660;28;20312;-76
2021/06/10 09:43:04;;;;;;;6.07;2.58;;;39.40;89.00;;;;;;5102210;28;20285;-75
2021/06/10 09:45:32;;;;;;;4.82;2.50;;;39.40;88.60;;;;;;5111704;28;20234;-75
2021/06/10 09:48:00;;;;;;;5.40;2.47;;;39.40;90.30;;;;;;5115657;28;20261;-75
2021/06/10 09:50:29;;;;;;;4.05;2.53;;;39.40;90.30;;;;;;5115207;28;20225;-75
2021/06/10 09:52:59;;;;;;;3.50;2.67;;;38.80;90.00;;;;;;5106444;28;20285;-76
2021/06/10 09:55:41;;;;;;;8.05;2.75;;;39.30;91.40;;;;;;5112779;28;20214;-75
2021/06/10 09:58:29;;;;;;;4.38;3.17;;;39.50;90.50;;;;;;5107793;28;20187;-74
2021/06/10 10:00:58;;;;;;;2.95;2.72;;;39.10;90.30;;;;;;5100245;28;20756;-75
2021/06/10 10:03:29;;;;;;;3.30;3.00;;;38.90;90.00;;;;;;5107980;28;20212;-76
2021/06/10 10:05:58;;;;;;;6.72;3.38;;;39.20;90.50;;;;;;5103253;28;20218;-76
2021/06/10 10:08:25;;;;;;;4.25;3.85;;;38.30;91.30;;;;;;5108283;28;20182;-75
2021/06/10 10:10:52;;;;;;;6.68;3.05;;;37.90;91.20;;;;;;5104715;28;20724;-75
2021/06/10 10:13:21;;;;;;;6.55;4.45;;;37.60;90.90;;;;;;5108080;28;20328;-75
2021/06/10 10:15:49;;;;;;;6.68;3.65;;;37.10;90.20;;;;;;5106038;28;20285;-76
2021/06/10 10:18:18;;;;;;;5.82;4.13;;;37.30;91.20;;;;;;5107739;28;20553;-75
2021/06/10 10:20:45;;;;;;;4.70;3.35;;;37.40;91.40;;;;;;5106420;28;20304;-75
2021/06/10 10:23:12;;;;;;;4.88;4.10;;;37.50;92.30;;;;;;5107296;28;20198;-75
2021/06/10 10:25:38;;;;;;;6.90;4.10;;;37.80;90.90;;;;;;5101807;28;20220;-74
2021/06/10 10:28:08;;;;;;;5.03;3.80;;;38.10;91.30;;;;;;5108571;28;20269;-75
2021/06/10 10:30:37;;;;;;;3.30;3.00;;;38.50;90.60;;;;;;5110273;28;20203;-76
2021/06/10 10:33:14;;;;;;;3.85;3.30;;;38.60;91.10;;;;;;5106645;28;20191;-75
2021/06/10 10:35:48;;;;;;;6.63;3.25;;;38.50;89.80;;;;;;5107034;27;20288;-75
2021/06/10 10:38:20;;;;;;;5.30;3.58;;;38.00;90.60;;;;;;5131581;27;20640;-75
2021/06/10 10:40:53;;;;;;;6.93;3.60;;;37.00;91.50;;;;;;5109921;28;20266;-75
2021/06/10 10:43:20;;;;;;;7.15;4.35;;;37.50;92.10;;;;;;5084038;28;20248;-75
2021/06/10 10:46:04;;;;;;;5.80;3.67;;;37.50;92.80;;;;;;5104291;28;20206;-74
2021/06/10 10:48:32;;;;;;;5.00;3.60;;;37.30;92.80;;;;;;5104954;28;20195;-76
2021/06/10 10:50:59;;;;;;;7.05;4.30;;;38.00;91.70;;;;;;5102003;28;20261;-76
2021/06/10 10:53:27;;;;;;;3.85;3.40;;;37.60;91.70;;;;;;5105589;28;20595;-74
2021/06/10 10:56:05;;;;;;;4.88;3.22;;;38.40;91.60;;;;;;5104208;28;20236;-75
2021/06/10 10:58:32;;;;;;;3.33;3.03;;;39.30;91.20;;;;;;5102341;28;20238;-73
2021/06/10 11:01:01;;;;;;;6.97;3.53;;;39.70;90.80;;;;;;5102471;28;20218;-74
2021/06/10 11:03:33;;;;;;;5.00;3.67;;;39.60;90.50;;;;;;5106581;28;20207;-74
2021/06/10 11:06:20;;;;;;;3.60;3.30;;;39.60;90.80;;;;;;5102615;28;20182;-75
2021/06/10 11:09:00;;;;;;;4.32;3.88;;;39.30;90.90;;;;;;5095170;28;20216;-75
2021/06/10 11:11:54;;;;;;;4.40;3.28;;;38.80;91.70;;;;;;5103162;28;20207;-74
2021/06/10 11:14:41;;;;;;;5.93;3.42;;;39.20;91.90;;;;;;5089626;28;20259;-75
2021/06/10 11:17:17;;;;;;;4.78;3.60;;;38.50;90.80;;;;;;5102414;28;20206;-76
2021/06/10 11:19:52;;;;;;;13.68;3.65;;;38.80;90.70;;;;;;5103810;28;20272;-76
2021/06/10 11:22:30;;;;;;;5.45;2.70;;;39.10;90.90;;;;;;5102009;28;20241;-75
2021/06/10 11:24:57;;;;;;;5.60;3.00;;;39.80;91.20;;;;;;5101930;28;20199;-75
2021/06/10 11:27:34;;;;;;;3.78;3.08;;;40.70;90.20;;;;;;5102172;28;20593;-75
2021/06/10 11:30:27;;;;;;;4.28;3.05;;;41.10;89.50;;;;;;5100898;28;20273;-75
2021/06/10 11:33:11;;;;;;;3.15;2.15;;;41.40;87.10;;;;;;5097168;28;20236;-76
2021/06/10 11:35:41;;;;;;;3.10;2.80;;;40.90;87.30;;;;;;5098695;28;20516;-77
2021/06/10 11:38:14;;;;;;;7.68;3.75;;;40.80;86.90;;;;;;5102693;28;20234;-76
2021/06/10 11:40:43;;;;;;;3.60;3.30;;;40.40;85.10;;;;;;5104222;28;20282;-75
2021/06/10 11:43:11;;;;;;;5.07;3.10;;;40.10;86.50;;;;;;5100926;28;20190;-74
2021/06/10 11:45:38;;;;;;;4.80;2.95;;;40.30;87.00;;;;;;5103861;28;20277;-75
2021/06/10 11:48:06;;;;;;;5.47;3.70;;;39.40;86.40;;;;;;5105302;28;20201;-74
2021/06/10 11:50:34;;;;;;;4.10;3.03;;;39.00;87.30;;;;;;5103993;28;20209;-74
2021/06/10 11:53:04;;;;;;;4.22;3.58;;;38.90;87.80;;;;;;5099835;28;20218;-75
2021/06/10 11:55:31;;;;;;;7.18;3.13;;;38.90;88.20;;;;;;5106648;28;20201;-75
2021/06/10 11:58:01;;;;;;;4.32;2.60;;;38.20;87.70;;;;;;5105121;28;20190;-74
2021/06/10 12:00:34;;;;;;;5.18;2.90;;;38.40;87.70;;;;;;5104831;28;20294;-73
2021/06/10 12:03:02;;;;;;;6.13;3.00;;;38.50;89.90;;;;;;5102550;28;20629;-74
2021/06/10 12:05:36;;;;;;;3.53;2.53;;;38.20;85.30;;;;;;5101556;28;20230;-75
2021/06/10 12:08:19;;;;;;;3.70;3.08;;;38.00;89.50;;;;;;5094673;28;20195;-75
2021/06/10 12:10:51;;;;;;;3.47;2.70;;;37.60;90.20;;;;;;5101406;28;20210;-75
2021/06/10 12:13:25;;;;;;;5.22;3.50;;;37.60;87.50;;;;;;5101909;28;20281;-75
2021/06/10 12:15:52;;;;;;;4.32;3.17;;;37.30;88.40;;;;;;5099290;28;20194;-74
2021/06/10 12:18:20;;;;;;;6.68;3.80;;;37.70;89.00;;;;;;5102059;28;20199;-75
2021/06/10 12:20:49;;;;;;;7.68;3.03;;;37.80;88.40;;;;;;5100405;28;20218;-74
2021/06/10 12:23:18;;;;;;;3.00;2.40;;;38.10;88.40;;;;;;5101707;28;20331;-74
2021/06/10 12:25:53;;;;;;;5.15;2.40;;;38.30;87.40;;;;;;5100118;28;20188;-74
2021/06/10 12:28:31;;;;;;;5.80;3.20;;;38.00;87.40;;;;;;5106061;28;20640;-74
2021/06/10 12:31:06;;;;;;;4.93;3.67;;;38.00;88.60;;;;;;5102811;28;20345;-74
2021/06/10 12:33:34;;;;;;;6.25;3.63;;;37.90;87.70;;;;;;5104846;28;20194;-75
2021/06/10 12:36:04;;;;;;;4.28;3.33;;;37.00;87.60;;;;;;5103399;28;20567;-75
2021/06/10 12:38:33;;;;;;;7.07;3.53;;;37.10;88.70;;;;;;5105738;28;20215;-75
2021/06/10 12:41:20;;;;;;;5.65;4.07;;;36.80;90.00;;;;;;5103444;28;20221;-75
2021/06/10 12:43:47;;;;;;;4.07;3.50;;;36.10;90.50;;;;;;5106398;28;20186;-75
2021/06/10 12:46:14;;;;;;;4.72;4.32;;;35.80;90.70;;;;;;5114879;28;20182;-75
2021/06/10 12:48:41;;;;;;;6.15;4.35;;;35.50;90.80;;;;;;5115397;28;20197;-76